METAR Data
IDs: Format: Raw Decoded Include TAF

Data at: 1105 UTC 26 Sep 2018

KSKX 261056Z AUTO 11007KT 10SM CLR 07/01 A3036 RMK AO2 SLP228 T00670006 $
KSKX 260956Z AUTO VRB03KT 10SM CLR 09/01 A3036 RMK AO2 SLP222 T00890011 $
KSKX 260856Z AUTO VRB03KT 10SM CLR 09/01 A3035 RMK AO2 SLP219 T00890011 53003 $
KSKX 260756Z AUTO 13007KT 10SM FEW100 10/02 A3035 RMK AO2 SLP212 T01000017 $
KSKX 260656Z AUTO 13015KT 10SM SCT100 11/02 A3034 RMK AO2 SLP207 T01110017 402560061 $
KSKX 260556Z AUTO 13015G24KT 10SM OVC100 12/02 A3034 RMK AO2 SLP211 T01220022 10239 20122 51015 $
KSKX 260456Z AUTO 13014G24KT 10SM SCT120 13/03 A3033 RMK AO2 SLP206 T01280028 $
KSKX 260356Z AUTO 13019G26KT 10SM OVC110 13/03 A3031 RMK AO2 PK WND 12026/0355 SLP205 T01330028 $
KSKX 260256Z AUTO 13020G25KT 10SM SCT120 14/02 A3029 RMK AO2 PK WND 12028/0229 SLP200 T01390022 51030 $
KSKX 260156Z AUTO 13020G26KT 10SM BKN120 14/03 A3025 RMK AO2 PK WND 11028/0125 SLP197 T01440028 $
KSKX 260056Z AUTO 11022G35KT 10SM SCT110 16/03 A3022 RMK AO2 PK WND 12035/0050 WSHFT 0014 SLP187 T01560033 $
KSKX 260034Z AUTO 11023G31KT 10SM BKN110 17/04 A3020 RMK AO2 PK WND 11032/0019 WSHFT 0014 $
KSKX 252356Z AUTO 26013KT 10SM SCT110 23/00 A3018 RMK AO2 SLP157 T02330000 10256 20211 55004 $
KSKX 252256Z AUTO 20013G20KT 10SM FEW110 22/01 A3018 RMK AO2 WSHFT 2143 LTG DSNT E AND SE SLP157 T02220006 $
KSKX 252203Z AUTO 20008KT 10SM BKN100 24/01 A3018 RMK AO2 WSHFT 2143 $
KSKX 252156Z AUTO 22011G21KT 10SM OVC100 23/01 A3018 RMK AO2 WSHFT 2141 SLP153 T02330006 $
KSKX 252056Z AUTO 28007KT 10SM FEW120 23/M02 A3019 RMK AO2 SLP157 T02331022 56015 $
KSKX 251956Z AUTO 29011G22KT 10SM SCT100 24/00 A3020 RMK AO2 LTG DSNT E SLP155 T02390000 $
KSKX 251856Z AUTO VRB05G21KT 10SM FEW080 24/02 A3023 RMK AO2 SLP164 T02390017 $
KSKX 251756Z AUTO 17008KT 10SM CLR 22/03 A3025 RMK AO2 SLP172 T02220028 10222 20061 58001 $
KSKX 251656Z AUTO 25006G14KT 10SM CLR 22/02 A3026 RMK AO2 SLP179 T02170022 $
KSKX 251556Z AUTO 10SM CLR 18/04 A3026 RMK AO2 SLP189 T01830039 $
KSKX 251456Z AUTO 16006KT 10SM CLR 16/03 A3025 RMK AO2 SLP183 T01610033 51014 $
KSKX 251356Z AUTO 00000KT 10SM CLR 11/01 A3025 RMK AO2 SLP191 T01060011 $
KSKX 251256Z AUTO 10005KT 10SM CLR 09/00 A3021 RMK AO2 SLP175 T00890000 $
KSKX 251156Z AUTO 07004KT 10SM CLR 09/M01 A3020 RMK AO2 SLP163 T00891011 10144 20089 53009 $
KSKX 251056Z AUTO 12004KT 10SM CLR 09/M02 A3018 RMK AO2 SLP153 T00941017 $
KSKX 250956Z AUTO 00000KT 10SM CLR 11/M01 A3017 RMK AO2 SLP148 T01061011 $
KSKX 250856Z AUTO 18004KT 10SM CLR 11/M02 A3017 RMK AO2 SLP141 T01111017 53005 $
KSKX 250756Z AUTO 01006KT 10SM BKN080 OVC100 12/M02 A3016 RMK AO2 SLP136 T01221017 $
KSKX 250656Z AUTO 32006KT 10SM BKN090 OVC120 13/M02 A3015 RMK AO2 SLP136 T01281017 402670056 $
KSKX 250556Z AUTO 28003KT 10SM OVC095 14/M01 A3015 RMK AO2 SLP135 T01441011 10244 20128 51002 $
KSKX 250456Z AUTO 01007KT 10SM OVC100 14/M02 A3015 RMK AO2 SLP142 T01391022 $
KSKX 250356Z AUTO 02007KT 10SM BKN110 13/M03 A3015 RMK AO2 SLP150 T01281028 $
KSKX 250256Z AUTO 32006KT 10SM CLR 16/M02 A3014 RMK AO2 SLP146 T01561022 53013 $
KSKX 250156Z AUTO 33006KT 10SM CLR 17/M02 A3012 RMK AO2 SLP144 T01721022 $
KSKX 250056Z AUTO 31010KT 10SM FEW100 21/M02 A3011 RMK AO2 SLP143 T02111017 $
KSKX 242356Z AUTO 28014KT 10SM BKN110 24/M02 A3010 RMK AO2 SLP130 T02391017 10267 20222 55000 $